Time;durP1;ratioP1;P1;durP2;ratioP2;P2;SDS_P1;SDS_P2;PMS_P1;PMS_P2;Temp;Humidity;BMP_temperature;BMP_pressure;BME280_temperature;BME280_humidity;BME280_pressure;Samples;Min_cycle;Max_cycle;Signal;HPM_P1;HPM_P2
2023/01/19 00:02:17;;;;;;;140.30;68.90;;;;;;;-0.16;91.42;97225.96;435290;1256;111115;-41
2023/01/19 00:12:25;;;;;;;145.50;70.20;;;;;;;-0.26;91.69;97224.96;435357;1256;108521;-39
2023/01/19 00:22:32;;;;;;;141.20;68.60;;;;;;;-0.28;91.60;97241.30;435212;1256;98439;-38
2023/01/19 00:32:39;;;;;;;128.20;65.30;;;;;;;-0.17;91.86;97241.82;435225;1253;111533;-38
2023/01/19 00:42:47;;;;;;;113.50;57.60;;;;;;;-0.02;91.88;97241.42;435233;1252;107601;-39
2023/01/19 00:52:55;;;;;;;100.50;53.70;;;;;;;0.04;91.70;97235.14;435135;1253;98813;-39
2023/01/19 01:03:02;;;;;;;99.90;52.60;;;;;;;0.17;92.05;97223.95;435403;1256;107340;-40
2023/01/19 01:13:11;;;;;;;142.10;69.10;;;;;;;0.12;91.71;97205.42;435284;1253;97992;-38
2023/01/19 01:23:31;;;;;;;148.90;70.10;;;;;;;-0.10;91.71;97203.95;435264;1253;111388;-38
2023/01/19 01:33:38;;;;;;;140.10;72.40;;;;;;;-0.26;91.68;97210.58;435220;1256;108408;-39
2023/01/19 01:43:45;;;;;;;143.40;72.20;;;;;;;-0.37;91.81;97210.39;435338;1256;99236;-38
2023/01/19 02:14:08;;;;;;;132.70;69.10;;;;;;;-0.29;91.55;97209.36;435233;1253;99250;-39
2023/01/19 02:24:16;;;;;;;128.50;68.10;;;;;;;-0.34;91.63;97216.70;435226;1256;109758;-40
2023/01/19 02:34:24;;;;;;;126.60;66.90;;;;;;;-0.39;91.72;97226.45;435187;1256;99231;-39
2023/01/19 02:44:32;;;;;;;114.30;57.20;;;;;;;-0.42;91.72;97234.64;435268;1256;113077;-39
2023/01/19 02:54:42;;;;;;;104.40;54.60;;;;;;;-0.43;91.80;97242.14;435625;1247;438848;-39
2023/01/19 03:15:09;;;;;;;151.30;72.90;;;;;;;-0.39;92.12;97253.02;435211;1257;107889;-39
2023/01/19 03:25:20;;;;;;;159.40;76.20;;;;;;;-0.40;92.20;97263.73;435131;1252;99204;-39
2023/01/19 03:35:33;;;;;;;144.90;72.20;;;;;;;-0.46;92.02;97263.33;435232;1258;111091;-39
2023/01/19 03:45:40;;;;;;;154.70;74.10;;;;;;;-0.55;91.99;97254.41;435166;1258;107329;-42
2023/01/19 03:55:52;;;;;;;134.40;75.80;;;;;;;-0.58;91.83;97251.02;435269;1257;99227;-39
2023/01/19 04:05:59;;;;;;;122.50;67.40;;;;;;;-0.51;91.75;97259.09;435147;1252;111420;-40
2023/01/19 04:16:04;;;;;;;104.90;58.40;;;;;;;-0.45;91.81;97267.27;435029;1257;105512;-40
2023/01/19 04:26:12;;;;;;;152.90;77.20;;;;;;;-0.44;91.82;97278.61;435107;1258;98022;-40
2023/01/19 04:36:19;;;;;;;134.80;68.90;;;;;;;-0.45;92.04;97288.08;435165;1256;110015;-40
2023/01/19 04:46:26;;;;;;;132.90;67.50;;;;;;;-0.51;91.98;97291.46;435137;1257;109285;-40
2023/01/19 04:56:33;;;;;;;131.80;68.40;;;;;;;-0.58;91.89;97314.08;435243;1258;99310;-39
2023/01/19 05:06:40;;;;;;;112.10;63.40;;;;;;;-0.63;91.80;97327.20;435111;1255;112829;-40
2023/01/19 05:16:47;;;;;;;104.80;58.20;;;;;;;-0.54;91.84;97328.95;435061;1253;107491;-40
2023/01/19 05:26:55;;;;;;;85.90;50.40;;;;;;;-0.41;91.83;97349.09;435010;1253;98814;-40
2023/01/19 05:37:02;;;;;;;113.70;60.40;;;;;;;-0.25;91.95;97363.02;435076;1257;108682;-40
2023/01/19 05:47:08;;;;;;;117.30;61.50;;;;;;;-0.30;92.04;97377.52;435143;1256;99234;-40
2023/01/19 05:57:16;;;;;;;106.90;57.80;;;;;;;-0.38;91.85;97382.80;435093;1257;111865;-40
2023/01/19 06:07:23;;;;;;;115.80;56.90;;;;;;;-0.47;92.09;97387.05;435028;1253;108141;-39
2023/01/19 06:17:33;;;;;;;125.00;69.70;;;;;;;-0.56;91.78;97378.00;435047;1257;99232;-39
2023/01/19 06:27:43;;;;;;;114.20;62.40;;;;;;;-0.49;91.70;97378.00;435080;1256;111743;-39
2023/01/19 06:37:50;;;;;;;141.30;68.90;;;;;;;-0.35;91.97;97382.21;435075;1259;107593;-41
2023/01/19 06:47:57;;;;;;;116.10;58.90;;;;;;;-0.25;91.99;97384.30;435132;1259;98650;-40
2023/01/19 06:58:05;;;;;;;109.50;55.00;;;;;;;-0.38;91.74;97406.57;435119;1256;109648;-38
2023/01/19 07:18:19;;;;;;;103.40;55.80;;;;;;;-0.42;92.09;97430.69;435119;1253;111902;-40
2023/01/19 07:28:26;;;;;;;97.70;53.50;;;;;;;-0.29;92.30;97444.38;435040;1253;107582;-41
2023/01/19 07:38:33;;;;;;;87.90;46.50;;;;;;;-0.17;92.27;97477.13;435023;1253;97975;-40
2023/01/19 07:48:43;;;;;;;77.50;39.40;;;;;;;-0.06;92.38;97484.77;435009;1253;109373;-40
2023/01/19 07:58:51;;;;;;;91.50;46.60;;;;;;;0.04;92.39;97494.09;434978;1253;99244;-39
2023/01/19 08:08:59;;;;;;;133.10;56.80;;;;;;;0.12;92.59;97493.34;435183;1259;111336;-40
2023/01/19 08:19:06;;;;;;;98.70;48.50;;;;;;;0.17;92.82;97489.23;435151;1253;107713;-39
2023/01/19 08:29:13;;;;;;;84.90;42.60;;;;;;;0.10;92.51;97480.61;435165;1259;99262;-40
2023/01/19 08:39:22;;;;;;;116.00;58.50;;;;;;;0.13;92.32;97496.62;434992;1256;112256;-39
2023/01/19 08:49:29;;;;;;;92.80;48.30;;;;;;;0.26;92.59;97508.34;435050;1257;108088;-39
2023/01/19 08:59:37;;;;;;;68.00;35.20;;;;;;;0.40;92.61;97511.93;435107;1254;99266;-40
2023/01/19 09:09:44;;;;;;;92.10;43.80;;;;;;;0.49;92.66;97507.05;434954;1259;108322;-40
2023/01/19 09:19:51;;;;;;;65.80;31.80;;;;;;;0.53;92.77;97504.48;435187;1253;98811;-40
2023/01/19 09:29:58;;;;;;;72.50;34.00;;;;;;;0.45;92.96;97519.60;435210;1259;113605;-40
2023/01/19 09:40:10;;;;;;;51.30;27.70;;;;;;;0.37;92.84;97533.80;434961;1257;108544;-39
2023/01/19 09:50:16;;;;;;;58.70;29.60;;;;;;;0.35;92.79;97535.83;435111;1254;99236;-40
2023/01/19 10:00:21;;;;;;;50.90;27.40;;;;;;;0.40;92.93;97539.38;435101;1253;112122;-40
2023/01/19 10:10:28;;;;;;;47.70;27.30;;;;;;;0.46;92.99;97537.09;435082;1257;107822;-40
2023/01/19 10:20:37;;;;;;;53.10;26.70;;;;;;;0.45;92.91;97521.68;435001;1253;99194;-40
2023/01/19 10:30:45;;;;;;;67.40;32.70;;;;;;;0.40;93.11;97512.13;435097;1254;107848;-40
2023/01/19 10:51:03;;;;;;;69.20;28.40;;;;;;;0.39;93.06;97509.40;435134;1259;111410;-39
2023/01/19 11:01:15;;;;;;;58.60;28.20;;;;;;;0.44;93.16;97501.98;435086;1257;108737;-42
2023/01/19 11:11:24;;;;;;;58.60;28.20;;;;;;;0.48;92.98;97488.61;435023;1257;99253;-40
2023/01/19 11:21:33;;;;;;;69.70;32.10;;;;;;;0.48;93.22;97473.54;435146;1259;108099;-40
2023/01/19 11:31:41;;;;;;;100.90;40.90;;;;;;;0.39;93.34;97473.23;435093;1257;99218;-40
2023/01/19 11:41:52;;;;;;;66.40;31.30;;;;;;;0.30;93.35;97469.04;435105;1259;112392;-40
2023/01/19 11:52:01;;;;;;;64.40;32.60;;;;;;;0.33;93.35;97468.20;435060;1255;107296;-40
2023/01/19 12:02:07;;;;;;;;;;;;;;;0.36;93.55;97470.06;435110;1256;98833;-40
2023/01/19 12:12:17;;;;;;;47.60;25.90;;;;;;;0.37;93.45;97473.19;435000;1267;107787;-41
2023/01/19 12:22:27;;;;;;;41.00;21.20;;;;;;;0.42;93.54;97479.97;435001;1254;99218;-40
2023/01/19 12:42:46;;;;;;;42.90;20.50;;;;;;;0.50;93.48;97477.10;435017;1267;107863;-38
2023/01/19 13:03:03;;;;;;;47.80;23.70;;;;;;;0.51;93.65;97485.86;435069;1254;111303;-39
2023/01/19 13:13:16;;;;;;;28.90;16.00;;;;;;;0.47;93.34;97480.52;435126;1266;108581;-40
2023/01/19 13:23:23;;;;;;;23.80;15.60;;;;;;;0.47;93.38;97484.75;434919;1254;99246;-39
2023/01/19 13:33:33;;;;;;;28.60;16.50;;;;;;;0.46;93.31;97494.90;434375;1254;107634;-38
2023/01/19 13:43:41;;;;;;;25.60;16.10;;;;;;;0.49;93.39;97494.30;434493;1254;99263;-39
2023/01/19 13:53:53;;;;;;;45.20;25.20;;;;;;;0.52;93.44;97501.52;434470;1254;112321;-40
2023/01/19 14:04:01;;;;;;;88.00;39.00;;;;;;;0.49;93.43;97518.02;434462;1257;107826;-40
2023/01/19 14:14:22;;;;;;;49.00;29.50;;;;;;;0.43;93.22;97529.46;434441;1254;99245;-39
2023/01/19 14:24:31;;;;;;;36.20;20.20;;;;;;;0.45;93.04;97531.79;434402;1257;111083;-38
2023/01/19 14:34:40;;;;;;;38.00;23.60;;;;;;;0.46;93.17;97527.27;434378;1254;106905;-39
2023/01/19 14:44:48;;;;;;;46.70;29.30;;;;;;;0.49;93.26;97539.08;434361;1254;97999;-39
2023/01/19 14:54:57;;;;;;;67.70;39.10;;;;;;;0.51;93.20;97543.40;434291;1254;393933;-40
2023/01/19 15:05:04;;;;;;;85.80;48.50;;;;;;;0.40;93.29;97538.45;434398;1254;99238;-39
2023/01/19 15:15:13;;;;;;;68.20;34.10;;;;;;;0.27;93.19;97553.67;434482;1258;110546;-39
2023/01/19 15:25:24;;;;;;;47.10;27.00;;;;;;;0.23;92.94;97558.67;434386;1257;107873;-41
2023/01/19 15:35:32;;;;;;;51.70;29.30;;;;;;;0.25;93.16;97563.92;434364;1254;99055;-39
2023/01/19 15:45:42;;;;;;;52.40;28.80;;;;;;;0.33;93.14;97561.46;434500;1254;108434;-40
2023/01/19 15:55:51;;;;;;;59.80;32.90;;;;;;;0.38;93.08;97564.89;434318;1257;98899;-38
2023/01/19 16:05:59;;;;;;;123.00;56.30;;;;;;;0.40;93.05;97566.89;434493;1257;111580;-39
2023/01/19 16:16:04;;;;;;;137.70;53.40;;;;;;;0.35;93.21;97573.19;434401;1254;107725;-39
2023/01/19 16:26:25;;;;;;;76.50;33.30;;;;;;;0.25;93.17;97569.45;434443;1256;97982;-38
2023/01/19 16:36:34;;;;;;;62.60;32.60;;;;;;;0.22;93.12;97580.54;434409;1253;108684;-39
2023/01/19 16:46:41;;;;;;;55.70;27.10;;;;;;;0.25;93.17;97581.82;434507;1256;99236;-39
2023/01/19 16:56:49;;;;;;;55.80;27.40;;;;;;;0.29;93.28;97588.80;434332;1257;112698;-39
2023/01/19 17:06:57;;;;;;;62.90;29.60;;;;;;;0.28;93.15;97593.55;434303;1253;107827;-40
2023/01/19 17:17:08;;;;;;;63.60;30.90;;;;;;;0.28;93.24;97606.55;434353;1253;99180;-39
2023/01/19 17:27:16;;;;;;;65.80;31.80;;;;;;;0.29;93.28;97609.36;434274;1253;107519;-39
2023/01/19 17:37:23;;;;;;;68.50;33.70;;;;;;;0.30;93.29;97606.96;434465;1253;98505;-40
2023/01/19 17:47:30;;;;;;;76.90;34.90;;;;;;;0.26;93.22;97608.41;434424;1254;111685;-39
2023/01/19 17:57:38;;;;;;;75.70;31.10;;;;;;;0.13;93.30;97611.91;434426;1257;106305;-39
2023/01/19 18:07:45;;;;;;;91.50;37.60;;;;;;;0.06;93.29;97613.10;434272;1257;99215;-39
2023/01/19 18:17:52;;;;;;;99.00;41.80;;;;;;;0.06;93.20;97616.90;434450;1257;111628;-39
2023/01/19 18:27:59;;;;;;;62.90;28.40;;;;;;;0.09;93.19;97616.92;434291;1254;110239;-40
2023/01/19 18:38:06;;;;;;;47.90;22.10;;;;;;;0.09;93.07;97617.40;434369;1255;99282;-40
2023/01/19 18:48:14;;;;;;;34.00;17.00;;;;;;;0.07;93.18;97632.42;434276;1253;107973;-39
2023/01/19 18:58:27;;;;;;;49.50;21.70;;;;;;;0.04;93.03;97638.39;434394;1257;99214;-38
2023/01/19 19:08:34;;;;;;;43.30;20.50;;;;;;;-0.04;93.16;97640.83;434423;1257;110633;-39
2023/01/19 19:18:42;;;;;;;38.90;19.00;;;;;;;-0.04;93.11;97648.06;434418;1256;106950;-39
2023/01/19 19:28:49;;;;;;;45.80;20.60;;;;;;;0.01;92.91;97659.71;434379;1253;99217;-39
2023/01/19 19:38:56;;;;;;;36.80;18.50;;;;;;;0.06;93.08;97667.36;434378;1253;111790;-39
2023/01/19 19:49:03;;;;;;;58.40;28.30;;;;;;;0.09;92.91;97668.30;434436;1252;108532;-39
2023/01/19 19:59:11;;;;;;;82.60;35.20;;;;;;;0.10;93.06;97686.66;434368;1257;99224;-39
2023/01/19 20:09:18;;;;;;;81.00;36.80;;;;;;;0.04;93.07;97695.85;434245;1257;112374;-39
2023/01/19 20:19:25;;;;;;;71.00;30.40;;;;;;;-0.03;93.00;97713.11;434423;1253;108258;-38
2023/01/19 20:29:32;;;;;;;49.40;24.30;;;;;;;-0.03;92.77;97726.08;434381;1253;99240;-39
2023/01/19 20:39:41;;;;;;;40.00;20.00;;;;;;;0.02;92.75;97746.17;434398;1257;110768;-39
2023/01/19 20:49:48;;;;;;;41.90;19.80;;;;;;;0.12;92.85;97768.83;434368;1253;108574;-39
2023/01/19 20:59:54;;;;;;;49.40;24.00;;;;;;;0.15;92.84;97780.44;434461;1257;99240;-41
2023/01/19 21:10:01;;;;;;;54.60;25.70;;;;;;;0.06;92.73;97782.11;434430;1257;111874;-40
2023/01/19 21:20:12;;;;;;;47.50;24.40;;;;;;;-0.06;92.66;97790.70;434440;1256;98020;-39
2023/01/19 21:30:19;;;;;;;46.90;22.40;;;;;;;-0.10;92.43;97794.85;434525;1252;110537;-39
2023/01/19 21:40:27;;;;;;;33.00;17.90;;;;;;;-0.06;92.52;97818.73;434399;1258;108056;-39
2023/01/19 21:50:33;;;;;;;51.60;28.80;;;;;;;0.01;92.43;97839.00;434414;1253;99336;-39
2023/01/19 22:00:40;;;;;;;52.20;24.40;;;;;;;0.04;92.38;97849.91;434487;1258;106913;-40
2023/01/19 22:10:47;;;;;;;47.70;22.20;;;;;;;-0.02;92.49;97849.55;434431;1257;98835;-39
2023/01/19 22:20:54;;;;;;;43.50;21.30;;;;;;;-0.13;92.35;97848.42;434444;1257;111678;-39
2023/01/19 22:31:03;;;;;;;40.60;19.40;;;;;;;-0.15;92.22;97847.43;434464;1257;107469;-39
2023/01/19 22:41:14;;;;;;;42.50;19.90;;;;;;;-0.11;92.14;97849.75;434521;1253;97975;-39
2023/01/19 22:51:23;;;;;;;42.70;21.90;;;;;;;-0.06;92.13;97861.38;434349;1256;107180;-39
2023/01/19 23:01:34;;;;;;;53.30;23.10;;;;;;;-0.00;92.05;97863.54;434549;1253;99320;-39
2023/01/19 23:11:44;;;;;;;54.70;24.90;;;;;;;-0.09;92.12;97866.81;434502;1257;112429;-40
2023/01/19 23:31:58;;;;;;;58.80;26.10;;;;;;;-0.31;91.83;97875.27;434521;1253;99250;-39
2023/01/19 23:42:06;;;;;;;51.80;25.90;;;;;;;-0.35;91.81;97890.23;434549;1256;112989;-40
2023/01/19 23:52:14;;;;;;;55.30;24.60;;;;;;;-0.32;91.71;97889.21;434424;1255;108550;-39
